sensor_id;sensor_type;location;lat;lon;timestamp;pressure;altitude;pressure_sealevel;temperature;humidity
63009;BME280;49099;28.428;-16.488;2023-07-29T00:00:07;98724.28;;;23.92;58.80
63009;BME280;49099;28.428;-16.488;2023-07-29T00:02:34;98725.41;;;23.91;58.18
63009;BME280;49099;28.428;-16.488;2023-07-29T00:05:01;98723.84;;;23.90;57.94
63009;BME280;49099;28.428;-16.488;2023-07-29T00:07:28;98721.44;;;23.88;57.52
63009;BME280;49099;28.428;-16.488;2023-07-29T00:09:56;98714.03;;;23.85;57.87
63009;BME280;49099;28.428;-16.488;2023-07-29T00:12:23;98706.94;;;23.81;57.29
63009;BME280;49099;28.428;-16.488;2023-07-29T00:14:50;98704.31;;;23.84;57.46
63009;BME280;49099;28.428;-16.488;2023-07-29T00:17:17;98709.38;;;23.86;57.96
63009;BME280;49099;28.428;-16.488;2023-07-29T00:19:44;98704.53;;;23.92;57.32
63009;BME280;49099;28.428;-16.488;2023-07-29T00:22:12;98699.88;;;23.92;56.60
63009;BME280;49099;28.428;-16.488;2023-07-29T00:24:39;98694.81;;;23.90;55.96
63009;BME280;49099;28.428;-16.488;2023-07-29T00:27:07;98695.16;;;23.89;55.60
63009;BME280;49099;28.428;-16.488;2023-07-29T00:29:37;98686.59;;;23.87;56.48
63009;BME280;49099;28.428;-16.488;2023-07-29T00:32:05;98684.16;;;23.82;58.02
63009;BME280;49099;28.428;-16.488;2023-07-29T00:34:32;98688.44;;;23.83;58.50
63009;BME280;49099;28.428;-16.488;2023-07-29T00:37:00;98684.38;;;23.77;59.69
63009;BME280;49099;28.428;-16.488;2023-07-29T00:39:27;98676.97;;;23.74;60.21
63009;BME280;49099;28.428;-16.488;2023-07-29T00:41:54;98677.63;;;23.71;60.22
63009;BME280;49099;28.428;-16.488;2023-07-29T00:44:21;98683.41;;;23.69;60.10
63009;BME280;49099;28.428;-16.488;2023-07-29T00:46:52;98666.63;;;23.63;59.53
63009;BME280;49099;28.428;-16.488;2023-07-29T00:49:20;98660.53;;;23.67;59.59
63009;BME280;49099;28.428;-16.488;2023-07-29T00:51:47;98665.59;;;23.68;59.77
63009;BME280;49099;28.428;-16.488;2023-07-29T00:54:14;98665.59;;;23.68;59.43
63009;BME280;49099;28.428;-16.488;2023-07-29T00:56:42;98667.75;;;23.62;58.76
63009;BME280;49099;28.428;-16.488;2023-07-29T00:59:09;98656.81;;;23.59;58.92
63009;BME280;49099;28.428;-16.488;2023-07-29T01:01:37;98656.69;;;23.55;57.16
63009;BME280;49099;28.428;-16.488;2023-07-29T01:04:05;98658.72;;;23.58;57.80
63009;BME280;49099;28.428;-16.488;2023-07-29T01:06:53;98654.22;;;23.62;57.21
63009;BME280;49099;28.428;-16.488;2023-07-29T01:10:01;98649.00;;;23.70;56.43
63009;BME280;49099;28.428;-16.488;2023-07-29T01:18:08;98646.91;;;23.79;56.59
63009;BME280;49099;28.428;-16.488;2023-07-29T01:20:40;98645.09;;;23.83;55.79
63009;BME280;49099;28.428;-16.488;2023-07-29T01:23:09;98647.19;;;23.89;56.18
63009;BME280;49099;28.428;-16.488;2023-07-29T01:25:36;98644.13;;;23.91;55.51
63009;BME280;49099;28.428;-16.488;2023-07-29T01:28:04;98643.44;;;23.94;56.56
63009;BME280;49099;28.428;-16.488;2023-07-29T01:30:39;98631.09;;;23.97;55.77
63009;BME280;49099;28.428;-16.488;2023-07-29T01:33:19;98633.22;;;24.03;55.42
63009;BME280;49099;28.428;-16.488;2023-07-29T01:36:15;98638.38;;;24.08;55.25
63009;BME280;49099;28.428;-16.488;2023-07-29T01:38:43;98640.72;;;24.10;55.52
63009;BME280;49099;28.428;-16.488;2023-07-29T01:41:11;98635.41;;;24.13;54.98
63009;BME280;49099;28.428;-16.488;2023-07-29T01:43:39;98634.00;;;24.19;54.66
63009;BME280;49099;28.428;-16.488;2023-07-29T01:46:11;98634.88;;;24.24;54.67
63009;BME280;49099;28.428;-16.488;2023-07-29T01:48:39;98629.03;;;24.22;54.33
63009;BME280;49099;28.428;-16.488;2023-07-29T01:51:07;98622.03;;;24.21;53.84
63009;BME280;49099;28.428;-16.488;2023-07-29T01:53:34;98620.53;;;24.23;54.07
63009;BME280;49099;28.428;-16.488;2023-07-29T01:56:02;98618.63;;;24.24;53.01
63009;BME280;49099;28.428;-16.488;2023-07-29T01:58:29;98610.06;;;24.22;53.53
63009;BME280;49099;28.428;-16.488;2023-07-29T02:00:57;98613.97;;;24.24;53.36
63009;BME280;49099;28.428;-16.488;2023-07-29T02:03:24;98608.19;;;24.26;52.94
63009;BME280;49099;28.428;-16.488;2023-07-29T02:05:51;98605.06;;;24.24;52.22
63009;BME280;49099;28.428;-16.488;2023-07-29T02:08:18;98607.41;;;24.25;52.11
63009;BME280;49099;28.428;-16.488;2023-07-29T02:10:45;98596.16;;;24.23;51.92
63009;BME280;49099;28.428;-16.488;2023-07-29T02:13:13;98601.16;;;24.21;51.51
63009;BME280;49099;28.428;-16.488;2023-07-29T02:15:40;98597.19;;;24.18;51.82
63009;BME280;49099;28.428;-16.488;2023-07-29T02:18:07;98592.22;;;24.21;52.47
63009;BME280;49099;28.428;-16.488;2023-07-29T02:20:34;98589.06;;;24.18;52.13
63009;BME280;49099;28.428;-16.488;2023-07-29T02:23:01;98588.38;;;24.22;51.84
63009;BME280;49099;28.428;-16.488;2023-07-29T02:25:28;98584.53;;;24.23;52.06
63009;BME280;49099;28.428;-16.488;2023-07-29T02:27:55;98593.09;;;24.25;51.71
63009;BME280;49099;28.428;-16.488;2023-07-29T02:30:23;98593.44;;;24.23;52.21
63009;BME280;49099;28.428;-16.488;2023-07-29T02:32:50;98586.09;;;24.24;51.66
63009;BME280;49099;28.428;-16.488;2023-07-29T02:35:17;98588.38;;;24.22;51.73
63009;BME280;49099;28.428;-16.488;2023-07-29T02:37:44;98588.81;;;24.24;51.19
63009;BME280;49099;28.428;-16.488;2023-07-29T02:40:12;98588.38;;;24.22;51.79
63009;BME280;49099;28.428;-16.488;2023-07-29T02:42:39;98575.78;;;24.13;51.69
63009;BME280;49099;28.428;-16.488;2023-07-29T02:45:07;98583.03;;;24.09;52.11
63009;BME280;49099;28.428;-16.488;2023-07-29T02:47:37;98575.16;;;24.04;52.75
63009;BME280;49099;28.428;-16.488;2023-07-29T02:50:05;98577.56;;;24.06;53.02
63009;BME280;49099;28.428;-16.488;2023-07-29T02:52:32;98581.81;;;24.07;53.19
63009;BME280;49099;28.428;-16.488;2023-07-29T02:54:59;98582.63;;;24.07;53.49
63009;BME280;49099;28.428;-16.488;2023-07-29T02:57:26;98586.47;;;24.06;53.21
63009;BME280;49099;28.428;-16.488;2023-07-29T02:59:54;98584.25;;;23.96;52.69
63009;BME280;49099;28.428;-16.488;2023-07-29T03:02:21;98584.91;;;23.89;53.41
63009;BME280;49099;28.428;-16.488;2023-07-29T03:04:49;98581.84;;;23.91;53.49
63009;BME280;49099;28.428;-16.488;2023-07-29T03:07:16;98575.03;;;23.97;53.46
63009;BME280;49099;28.428;-16.488;2023-07-29T03:09:43;98571.50;;;23.97;52.75
63009;BME280;49099;28.428;-16.488;2023-07-29T03:12:11;98573.94;;;24.02;52.97
63009;BME280;49099;28.428;-16.488;2023-07-29T03:14:39;98576.75;;;24.05;52.77
63009;BME280;49099;28.428;-16.488;2023-07-29T03:17:07;98573.00;;;24.10;52.66
63009;BME280;49099;28.428;-16.488;2023-07-29T03:19:35;98574.06;;;24.05;52.52
63009;BME280;49099;28.428;-16.488;2023-07-29T03:22:02;98581.03;;;24.06;52.49
63009;BME280;49099;28.428;-16.488;2023-07-29T03:24:29;98572.19;;;24.09;52.25
63009;BME280;49099;28.428;-16.488;2023-07-29T03:26:56;98575.78;;;24.13;52.12
63009;BME280;49099;28.428;-16.488;2023-07-29T03:29:23;98569.66;;;24.16;52.54
63009;BME280;49099;28.428;-16.488;2023-07-29T03:31:50;98568.09;;;24.15;52.67
63009;BME280;49099;28.428;-16.488;2023-07-29T03:34:17;98570.38;;;24.13;53.35
63009;BME280;49099;28.428;-16.488;2023-07-29T03:36:44;98575.16;;;24.04;53.73
63009;BME280;49099;28.428;-16.488;2023-07-29T03:39:14;98571.66;;;24.04;53.84
63009;BME280;49099;28.428;-16.488;2023-07-29T03:41:41;98569.69;;;24.01;53.71
63009;BME280;49099;28.428;-16.488;2023-07-29T03:44:08;98567.41;;;24.03;53.95
63009;BME280;49099;28.428;-16.488;2023-07-29T03:46:35;98565.47;;;24.03;53.73
63009;BME280;49099;28.428;-16.488;2023-07-29T03:49:03;98556.91;;;24.01;54.12
63009;BME280;49099;28.428;-16.488;2023-07-29T03:51:31;98562.59;;;23.96;54.13
63009;BME280;49099;28.428;-16.488;2023-07-29T03:53:58;98566.72;;;23.90;54.38
63009;BME280;49099;28.428;-16.488;2023-07-29T03:56:25;98563.38;;;23.81;54.58
63009;BME280;49099;28.428;-16.488;2023-07-29T03:58:53;98564.09;;;23.78;54.86
63009;BME280;49099;28.428;-16.488;2023-07-29T04:01:20;98566.59;;;23.71;55.31
63009;BME280;49099;28.428;-16.488;2023-07-29T04:03:47;98564.44;;;23.60;55.84
63009;BME280;49099;28.428;-16.488;2023-07-29T04:06:15;98565.06;;;23.57;55.87
63009;BME280;49099;28.428;-16.488;2023-07-29T04:08:42;98561.16;;;23.55;55.79
63009;BME280;49099;28.428;-16.488;2023-07-29T04:11:09;98566.34;;;23.60;56.22
63009;BME280;49099;28.428;-16.488;2023-07-29T04:13:36;98574.34;;;23.56;56.17
63009;BME280;49099;28.428;-16.488;2023-07-29T04:16:05;98564.63;;;23.55;56.33
63009;BME280;49099;28.428;-16.488;2023-07-29T04:18:32;98566.56;;;23.55;56.50
63009;BME280;49099;28.428;-16.488;2023-07-29T04:20:59;98570.50;;;23.57;56.63
63009;BME280;49099;28.428;-16.488;2023-07-29T04:23:26;98565.34;;;23.52;57.00
63009;BME280;49099;28.428;-16.488;2023-07-29T04:25:53;98572.75;;;23.55;56.57
63009;BME280;49099;28.428;-16.488;2023-07-29T04:28:21;98574.34;;;23.56;56.91
63009;BME280;49099;28.428;-16.488;2023-07-29T04:30:48;98578.41;;;23.62;56.80
63009;BME280;49099;28.428;-16.488;2023-07-29T04:33:15;98576.91;;;23.65;56.33
63009;BME280;49099;28.428;-16.488;2023-07-29T04:35:42;98572.03;;;23.71;56.60
63009;BME280;49099;28.428;-16.488;2023-07-29T04:38:09;98576.41;;;23.75;56.25
63009;BME280;49099;28.428;-16.488;2023-07-29T04:40:36;98574.13;;;23.77;56.18
63009;BME280;49099;28.428;-16.488;2023-07-29T04:43:03;98575.03;;;23.81;56.00
63009;BME280;49099;28.428;-16.488;2023-07-29T04:45:31;98577.09;;;23.88;55.80
63009;BME280;49099;28.428;-16.488;2023-07-29T04:47:58;98577.19;;;23.92;55.69
63009;BME280;49099;28.428;-16.488;2023-07-29T04:50:26;98579.56;;;23.93;55.84
63009;BME280;49099;28.428;-16.488;2023-07-29T04:52:53;98576.41;;;23.91;55.65
63009;BME280;49099;28.428;-16.488;2023-07-29T04:55:20;98574.50;;;23.92;55.25
63009;BME280;49099;28.428;-16.488;2023-07-29T04:57:47;98572.47;;;23.88;54.65
63009;BME280;49099;28.428;-16.488;2023-07-29T05:00:14;98577.56;;;23.90;55.06
63009;BME280;49099;28.428;-16.488;2023-07-29T05:02:42;98571.84;;;23.95;54.53
63009;BME280;49099;28.428;-16.488;2023-07-29T05:05:09;98569.16;;;23.95;54.29
63009;BME280;49099;28.428;-16.488;2023-07-29T05:07:36;98572.31;;;23.97;54.35
63009;BME280;49099;28.428;-16.488;2023-07-29T05:10:04;98572.75;;;23.99;54.27
63009;BME280;49099;28.428;-16.488;2023-07-29T05:12:31;98567.56;;;23.94;53.84
63009;BME280;49099;28.428;-16.488;2023-07-29T05:14:59;98571.44;;;23.93;53.36
63009;BME280;49099;28.428;-16.488;2023-07-29T05:17:27;98566.72;;;23.90;53.26
63009;BME280;49099;28.428;-16.488;2023-07-29T05:19:54;98572.56;;;23.92;53.33
63009;BME280;49099;28.428;-16.488;2023-07-29T05:22:21;98569.16;;;23.95;53.05
63009;BME280;49099;28.428;-16.488;2023-07-29T05:24:48;98572.91;;;23.90;53.23
63009;BME280;49099;28.428;-16.488;2023-07-29T05:27:15;98574.38;;;23.88;52.88
63009;BME280;49099;28.428;-16.488;2023-07-29T05:29:43;98571.97;;;23.83;52.86
63009;BME280;49099;28.428;-16.488;2023-07-29T05:32:10;98580.44;;;23.81;52.78
63009;BME280;49099;28.428;-16.488;2023-07-29T05:34:37;98582.00;;;23.82;52.78
63009;BME280;49099;28.428;-16.488;2023-07-29T05:37:07;98584.97;;;23.77;53.17
63009;BME280;49099;28.428;-16.488;2023-07-29T05:39:34;98598.44;;;23.74;53.30
63009;BME280;49099;28.428;-16.488;2023-07-29T05:42:02;98596.41;;;23.71;53.17
63009;BME280;49099;28.428;-16.488;2023-07-29T05:44:29;98597.28;;;23.75;53.18
63009;BME280;49099;28.428;-16.488;2023-07-29T05:46:59;98598.44;;;23.74;53.01
63009;BME280;49099;28.428;-16.488;2023-07-29T05:49:26;98592.72;;;23.79;53.25
63009;BME280;49099;28.428;-16.488;2023-07-29T05:51:53;98596.59;;;23.78;53.18
63009;BME280;49099;28.428;-16.488;2023-07-29T05:54:20;98593.97;;;23.81;53.21
63009;BME280;49099;28.428;-16.488;2023-07-29T05:56:48;98599.72;;;23.80;52.98
63009;BME280;49099;28.428;-16.488;2023-07-29T05:59:15;98597.38;;;23.78;52.98
63009;BME280;49099;28.428;-16.488;2023-07-29T06:01:42;98595.19;;;23.84;53.00
63009;BME280;49099;28.428;-16.488;2023-07-29T06:04:09;98602.19;;;23.85;53.05
63009;BME280;49099;28.428;-16.488;2023-07-29T06:06:36;98610.75;;;23.87;52.69
63009;BME280;49099;28.428;-16.488;2023-07-29T06:09:04;98608.31;;;23.82;52.88
63009;BME280;49099;28.428;-16.488;2023-07-29T06:11:31;98605.50;;;23.94;52.90
63009;BME280;49099;28.428;-16.488;2023-07-29T06:13:58;98614.06;;;23.96;52.60
63009;BME280;49099;28.428;-16.488;2023-07-29T06:16:25;98612.94;;;23.97;52.74
63009;BME280;49099;28.428;-16.488;2023-07-29T06:18:52;98613.38;;;23.99;52.78
63009;BME280;49099;28.428;-16.488;2023-07-29T06:21:20;98608.03;;;24.03;52.75
63009;BME280;49099;28.428;-16.488;2023-07-29T06:23:47;98612.31;;;24.04;52.47
63009;BME280;49099;28.428;-16.488;2023-07-29T06:26:14;98619.34;;;24.05;52.44
63009;BME280;49099;28.428;-16.488;2023-07-29T06:28:41;98616.69;;;24.08;52.71
63009;BME280;49099;28.428;-16.488;2023-07-29T06:31:08;98613.56;;;24.06;52.46
63009;BME280;49099;28.428;-16.488;2023-07-29T06:33:36;98623.25;;;24.07;52.81
63009;BME280;49099;28.428;-16.488;2023-07-29T06:36:03;98627.00;;;24.03;52.91
63009;BME280;49099;28.428;-16.488;2023-07-29T06:38:35;98636.63;;;24.00;53.17
63009;BME280;49099;28.428;-16.488;2023-07-29T06:41:13;98645.97;;;24.03;53.11
63009;BME280;49099;28.428;-16.488;2023-07-29T06:43:42;98652.97;;;24.04;53.23
63009;BME280;49099;28.428;-16.488;2023-07-29T06:46:10;98649.91;;;24.05;53.43
63009;BME280;49099;28.428;-16.488;2023-07-29T06:48:37;98650.34;;;24.07;53.15
63009;BME280;49099;28.428;-16.488;2023-07-29T06:51:04;98651.50;;;24.06;53.15
63009;BME280;49099;28.428;-16.488;2023-07-29T06:53:31;98662.75;;;24.08;53.39
63009;BME280;49099;28.428;-16.488;2023-07-29T06:56:00;98653.84;;;24.08;53.60
63009;BME280;49099;28.428;-16.488;2023-07-29T06:58:27;98657.69;;;24.07;54.00
63009;BME280;49099;28.428;-16.488;2023-07-29T07:00:55;98663.97;;;24.11;54.00
63009;BME280;49099;28.428;-16.488;2023-07-29T07:03:24;98660.06;;;24.08;54.41
63009;BME280;49099;28.428;-16.488;2023-07-29T07:05:55;98665.47;;;24.08;55.35
63009;BME280;49099;28.428;-16.488;2023-07-29T07:08:22;98667.75;;;24.06;55.69
63009;BME280;49099;28.428;-16.488;2023-07-29T07:10:49;98673.84;;;24.03;55.59
63009;BME280;49099;28.428;-16.488;2023-07-29T07:13:16;98668.78;;;24.02;56.07
63009;BME280;49099;28.428;-16.488;2023-07-29T07:15:43;98670.28;;;23.99;55.68
63009;BME280;49099;28.428;-16.488;2023-07-29T07:18:11;98673.34;;;23.98;55.62
63009;BME280;49099;28.428;-16.488;2023-07-29T07:20:39;98679.88;;;23.97;55.89
63009;BME280;49099;28.428;-16.488;2023-07-29T07:23:06;98678.41;;;23.99;55.75
63009;BME280;49099;28.428;-16.488;2023-07-29T07:25:37;98673.59;;;23.93;55.90
63009;BME280;49099;28.428;-16.488;2023-07-29T07:28:04;98670.34;;;23.87;55.83
63009;BME280;49099;28.428;-16.488;2023-07-29T07:30:31;98677.31;;;23.88;55.48
63009;BME280;49099;28.428;-16.488;2023-07-29T07:32:59;98681.16;;;23.87;55.46
63009;BME280;49099;28.428;-16.488;2023-07-29T07:35:26;98680.38;;;23.86;55.64
63009;BME280;49099;28.428;-16.488;2023-07-29T07:37:53;98689.28;;;23.87;55.14
63009;BME280;49099;28.428;-16.488;2023-07-29T07:40:20;98679.59;;;23.86;55.43
63009;BME280;49099;28.428;-16.488;2023-07-29T07:42:48;98681.72;;;23.93;55.38
63009;BME280;49099;28.428;-16.488;2023-07-29T07:45:15;98681.34;;;23.94;55.26
63009;BME280;49099;28.428;-16.488;2023-07-29T07:47:42;98686.09;;;23.97;54.78
63009;BME280;49099;28.428;-16.488;2023-07-29T07:50:09;98687.84;;;24.05;55.86
63009;BME280;49099;28.428;-16.488;2023-07-29T07:52:36;98689.63;;;24.13;54.83
63009;BME280;49099;28.428;-16.488;2023-07-29T07:55:04;98695.81;;;24.14;53.95
63009;BME280;49099;28.428;-16.488;2023-07-29T07:57:31;98697.28;;;24.11;53.93
63009;BME280;49099;28.428;-16.488;2023-07-29T07:59:58;98696.31;;;24.04;53.41
63009;BME280;49099;28.428;-16.488;2023-07-29T08:02:25;98700.50;;;24.01;53.08
63009;BME280;49099;28.428;-16.488;2023-07-29T08:04:52;98694.66;;;23.99;53.06
63009;BME280;49099;28.428;-16.488;2023-07-29T08:07:19;98700.50;;;24.01;53.32
63009;BME280;49099;28.428;-16.488;2023-07-29T08:09:47;98701.22;;;23.98;52.89
63009;BME280;49099;28.428;-16.488;2023-07-29T08:12:14;98702.34;;;23.97;53.35
63009;BME280;49099;28.428;-16.488;2023-07-29T08:14:44;98697.75;;;24.13;52.91
63009;BME280;49099;28.428;-16.488;2023-07-29T08:17:11;98699.22;;;24.27;52.68
63009;BME280;49099;28.428;-16.488;2023-07-29T08:19:38;98705.44;;;24.27;52.19
63009;BME280;49099;28.428;-16.488;2023-07-29T08:22:05;98696.97;;;24.29;51.83
63009;BME280;49099;28.428;-16.488;2023-07-29T08:24:32;98694.00;;;24.34;51.68
63009;BME280;49099;28.428;-16.488;2023-07-29T08:27:00;98706.41;;;24.35;51.41
63009;BME280;49099;28.428;-16.488;2023-07-29T08:29:28;98707.31;;;24.39;51.47
63009;BME280;49099;28.428;-16.488;2023-07-29T08:31:55;98696.81;;;24.53;51.57
63009;BME280;49099;28.428;-16.488;2023-07-29T08:34:22;98702.13;;;24.65;51.16
63009;BME280;49099;28.428;-16.488;2023-07-29T08:36:49;98704.22;;;24.72;50.84
63009;BME280;49099;28.428;-16.488;2023-07-29T08:39:16;98706.31;;;24.79;51.06
63009;BME280;49099;28.428;-16.488;2023-07-29T08:42:03;98706.22;;;24.91;50.87
63009;BME280;49099;28.428;-16.488;2023-07-29T08:44:51;98699.81;;;24.99;50.37
63009;BME280;49099;28.428;-16.488;2023-07-29T08:47:21;98702.94;;;25.01;50.58
63009;BME280;49099;28.428;-16.488;2023-07-29T08:49:50;98701.22;;;25.09;50.37
63009;BME280;49099;28.428;-16.488;2023-07-29T08:52:19;98703.72;;;25.17;50.41
63009;BME280;49099;28.428;-16.488;2023-07-29T08:54:47;98702.31;;;25.23;49.68
63009;BME280;49099;28.428;-16.488;2023-07-29T08:57:14;98710.16;;;25.28;49.61
63009;BME280;49099;28.428;-16.488;2023-07-29T08:59:41;98700.88;;;25.30;48.84
63009;BME280;49099;28.428;-16.488;2023-07-29T09:02:09;98698.44;;;25.24;49.53
63009;BME280;49099;28.428;-16.488;2023-07-29T09:04:36;98695.94;;;25.16;50.20
63009;BME280;49099;28.428;-16.488;2023-07-29T09:07:04;98699.69;;;25.11;50.78
63009;BME280;49099;28.428;-16.488;2023-07-29T09:09:32;98709.00;;;25.10;50.39
63009;BME280;49099;28.428;-16.488;2023-07-29T09:11:59;98710.56;;;25.11;50.83
63009;BME280;49099;28.428;-16.488;2023-07-29T09:14:26;98701.56;;;25.07;51.19
63009;BME280;49099;28.428;-16.488;2023-07-29T09:16:54;98708.72;;;25.15;51.58
63009;BME280;49099;28.428;-16.488;2023-07-29T09:19:25;98707.16;;;25.34;51.11
63009;BME280;49099;28.428;-16.488;2023-07-29T09:21:53;98711.31;;;25.47;50.77
63009;BME280;49099;28.428;-16.488;2023-07-29T09:24:21;98701.75;;;25.53;50.76
63009;BME280;49099;28.428;-16.488;2023-07-29T09:26:49;98703.03;;;25.59;50.12
63009;BME280;49099;28.428;-16.488;2023-07-29T09:29:21;98704.59;;;25.60;50.31
63009;BME280;49099;28.428;-16.488;2023-07-29T09:31:49;98714.47;;;25.49;50.86
63009;BME280;49099;28.428;-16.488;2023-07-29T09:34:16;98707.31;;;25.41;51.00
63009;BME280;49099;28.428;-16.488;2023-07-29T09:36:44;98703.72;;;25.37;51.82
63009;BME280;49099;28.428;-16.488;2023-07-29T09:39:12;98711.03;;;25.33;51.99
63009;BME280;49099;28.428;-16.488;2023-07-29T09:41:47;98710.25;;;25.32;52.17
63009;BME280;49099;28.428;-16.488;2023-07-29T09:44:15;98714.88;;;25.32;52.94
63009;BME280;49099;28.428;-16.488;2023-07-29T09:46:46;98713.47;;;25.38;52.55
63009;BME280;49099;28.428;-16.488;2023-07-29T09:49:14;98712.03;;;25.44;53.08
63009;BME280;49099;28.428;-16.488;2023-07-29T09:51:41;98718.91;;;25.38;52.88
63009;BME280;49099;28.428;-16.488;2023-07-29T09:54:08;98723.59;;;25.41;53.34
63009;BME280;49099;28.428;-16.488;2023-07-29T09:56:41;98722.88;;;25.44;53.64
63009;BME280;49099;28.428;-16.488;2023-07-29T09:59:11;98723.66;;;25.44;53.92
63009;BME280;49099;28.428;-16.488;2023-07-29T10:01:41;98720.88;;;25.41;54.06
63009;BME280;49099;28.428;-16.488;2023-07-29T10:04:09;98718.75;;;25.31;54.91
63009;BME280;49099;28.428;-16.488;2023-07-29T10:06:39;98736.81;;;25.23;54.74
63009;BME280;49099;28.428;-16.488;2023-07-29T10:09:07;98738.59;;;25.15;55.32
63009;BME280;49099;28.428;-16.488;2023-07-29T10:11:35;98736.56;;;25.12;55.97
63009;BME280;49099;28.428;-16.488;2023-07-29T10:14:03;98734.63;;;25.13;55.44
63009;BME280;49099;28.428;-16.488;2023-07-29T10:16:36;98744.06;;;25.19;55.72
63009;BME280;49099;28.428;-16.488;2023-07-29T10:19:07;98742.78;;;25.13;56.83
63009;BME280;49099;28.428;-16.488;2023-07-29T10:21:38;98749.97;;;25.05;56.94
63009;BME280;49099;28.428;-16.488;2023-07-29T10:24:09;98740.06;;;24.97;56.77
63009;BME280;49099;28.428;-16.488;2023-07-29T10:26:39;98747.34;;;24.93;56.64
63009;BME280;49099;28.428;-16.488;2023-07-29T10:29:10;98748.03;;;24.90;56.92
63009;BME280;49099;28.428;-16.488;2023-07-29T10:31:40;98749.28;;;24.92;57.53
63009;BME280;49099;28.428;-16.488;2023-07-29T10:34:09;98738.84;;;24.94;56.75
63009;BME280;49099;28.428;-16.488;2023-07-29T10:36:37;98745.78;;;24.92;55.93
63009;BME280;49099;28.428;-16.488;2023-07-29T10:39:07;98745.94;;;24.99;56.01
63009;BME280;49099;28.428;-16.488;2023-07-29T10:42:00;98754.78;;;25.12;56.08
63009;BME280;49099;28.428;-16.488;2023-07-29T10:47:13;98745.31;;;25.06;56.20
63009;BME280;49099;28.428;-16.488;2023-07-29T10:49:45;98747.16;;;25.17;55.79
63009;BME280;49099;28.428;-16.488;2023-07-29T10:52:14;98749.31;;;25.27;55.87
63009;BME280;49099;28.428;-16.488;2023-07-29T10:57:30;98745.19;;;25.34;55.47
63009;BME280;49099;28.428;-16.488;2023-07-29T10:59:57;98742.19;;;25.39;54.75
63009;BME280;49099;28.428;-16.488;2023-07-29T11:02:42;98737.53;;;25.39;53.91
63009;BME280;49099;28.428;-16.488;2023-07-29T11:05:18;98741.69;;;25.52;54.54
63009;BME280;49099;28.428;-16.488;2023-07-29T11:07:48;98735.06;;;25.69;53.32
63009;BME280;49099;28.428;-16.488;2023-07-29T11:10:15;98743.50;;;25.83;53.06
63009;BME280;49099;28.428;-16.488;2023-07-29T11:12:50;98742.84;;;25.90;53.25
63009;BME280;49099;28.428;-16.488;2023-07-29T11:15:20;98740.50;;;25.89;53.63
63009;BME280;49099;28.428;-16.488;2023-07-29T11:17:50;98733.06;;;25.86;52.27
63009;BME280;49099;28.428;-16.488;2023-07-29T11:20:23;98740.59;;;25.92;52.70
63009;BME280;49099;28.428;-16.488;2023-07-29T11:22:52;98728.25;;;25.98;53.15
63009;BME280;49099;28.428;-16.488;2023-07-29T11:25:22;98732.03;;;26.13;52.53
63009;BME280;49099;28.428;-16.488;2023-07-29T11:27:53;98735.19;;;26.15;51.50
63009;BME280;49099;28.428;-16.488;2023-07-29T11:30:21;98732.81;;;26.14;51.70
63009;BME280;49099;28.428;-16.488;2023-07-29T11:32:50;98732.75;;;26.10;52.05
63009;BME280;49099;28.428;-16.488;2023-07-29T11:35:18;98741.41;;;26.16;53.02
63009;BME280;49099;28.428;-16.488;2023-07-29T11:37:47;98732.09;;;26.17;52.94
63009;BME280;49099;28.428;-16.488;2023-07-29T11:40:19;98740.53;;;26.11;53.59
63009;BME280;49099;28.428;-16.488;2023-07-29T11:42:49;98737.78;;;26.08;53.37
63009;BME280;49099;28.428;-16.488;2023-07-29T11:45:20;98733.34;;;26.00;53.34
63009;BME280;49099;28.428;-16.488;2023-07-29T11:47:49;98730.19;;;25.98;54.11
63009;BME280;49099;28.428;-16.488;2023-07-29T11:50:16;98729.41;;;25.97;54.18
63009;BME280;49099;28.428;-16.488;2023-07-29T11:52:45;98720.63;;;25.85;54.21
63009;BME280;49099;28.428;-16.488;2023-07-29T11:55:14;98722.63;;;25.88;54.30
63009;BME280;49099;28.428;-16.488;2023-07-29T11:57:43;98718.34;;;25.87;55.29
63009;BME280;49099;28.428;-16.488;2023-07-29T12:00:11;98716.91;;;25.93;55.34
63009;BME280;49099;28.428;-16.488;2023-07-29T12:02:41;98712.38;;;26.00;54.97
63009;BME280;49099;28.428;-16.488;2023-07-29T12:05:12;98717.31;;;25.95;54.56
63009;BME280;49099;28.428;-16.488;2023-07-29T12:07:41;98707.19;;;25.72;54.41
63009;BME280;49099;28.428;-16.488;2023-07-29T12:10:10;98704.72;;;25.67;54.63
63009;BME280;49099;28.428;-16.488;2023-07-29T12:12:44;98709.13;;;25.72;54.54
63009;BME280;49099;28.428;-16.488;2023-07-29T12:15:12;98711.75;;;25.68;54.67
63009;BME280;49099;28.428;-16.488;2023-07-29T12:17:42;98714.03;;;25.66;55.12
63009;BME280;49099;28.428;-16.488;2023-07-29T12:20:10;98703.94;;;25.67;54.28
63009;BME280;49099;28.428;-16.488;2023-07-29T12:22:37;98709.56;;;25.74;54.14
63009;BME280;49099;28.428;-16.488;2023-07-29T12:25:05;98709.78;;;25.85;54.66
63009;BME280;49099;28.428;-16.488;2023-07-29T12:27:33;98716.03;;;26.08;54.01
63009;BME280;49099;28.428;-16.488;2023-07-29T12:30:01;98715.34;;;26.15;52.43
63009;BME280;49099;28.428;-16.488;2023-07-29T12:32:31;98712.16;;;26.09;52.88
63009;BME280;49099;28.428;-16.488;2023-07-29T12:34:59;98707.56;;;26.13;52.61
63009;BME280;49099;28.428;-16.488;2023-07-29T12:37:32;98701.09;;;26.21;53.30
63009;BME280;49099;28.428;-16.488;2023-07-29T12:40:00;98697.22;;;26.22;53.48
63009;BME280;49099;28.428;-16.488;2023-07-29T12:42:27;98692.75;;;26.33;53.07
63009;BME280;49099;28.428;-16.488;2023-07-29T12:44:54;98695.00;;;26.51;52.36
63009;BME280;49099;28.428;-16.488;2023-07-29T12:47:21;98689.69;;;26.58;51.75
63009;BME280;49099;28.428;-16.488;2023-07-29T12:49:50;98687.19;;;26.72;51.61
63009;BME280;49099;28.428;-16.488;2023-07-29T12:52:17;98680.97;;;26.72;51.45
63009;BME280;49099;28.428;-16.488;2023-07-29T12:54:44;98678.13;;;26.64;52.35
63009;BME280;49099;28.428;-16.488;2023-07-29T12:57:12;98679.19;;;26.56;52.85